sensor_id;sensor_type;location;lat;lon;timestamp;pressure;altitude;pressure_sealevel;temperature;humidity
68654;BME280;55636;51.108;13.622;2023-04-15T00:00:17;99197.19;;;7.29;69.57
68654;BME280;55636;51.108;13.622;2023-04-15T00:01:21;99199.69;;;7.31;69.43
68654;BME280;55636;51.108;13.622;2023-04-15T00:02:23;99198.03;;;7.30;69.47
68654;BME280;55636;51.108;13.622;2023-04-15T00:03:26;99192.81;;;7.28;69.54
68654;BME280;55636;51.108;13.622;2023-04-15T00:04:29;99200.75;;;7.30;69.45
68654;BME280;55636;51.108;13.622;2023-04-15T00:05:35;99202.66;;;7.29;69.51
68654;BME280;55636;51.108;13.622;2023-04-15T00:06:37;99199.91;;;7.29;69.53
68654;BME280;55636;51.108;13.622;2023-04-15T00:07:40;99193.88;;;7.27;69.55
68654;BME280;55636;51.108;13.622;2023-04-15T00:08:43;99195.53;;;7.28;69.41
68654;BME280;55636;51.108;13.622;2023-04-15T00:09:45;99199.91;;;7.29;69.61
68654;BME280;55636;51.108;13.622;2023-04-15T00:10:47;99199.09;;;7.29;69.51
68654;BME280;55636;51.108;13.622;2023-04-15T00:11:50;99194.44;;;7.29;69.66
68654;BME280;55636;51.108;13.622;2023-04-15T00:12:52;99192.53;;;7.30;69.58
68654;BME280;55636;51.108;13.622;2023-04-15T00:13:55;99193.63;;;7.29;69.55
68654;BME280;55636;51.108;13.622;2023-04-15T00:14:57;99193.63;;;7.29;69.56
68654;BME280;55636;51.108;13.622;2023-04-15T00:16:00;99200.75;;;7.30;69.62
68654;BME280;55636;51.108;13.622;2023-04-15T00:17:03;99194.44;;;7.29;69.60
68654;BME280;55636;51.108;13.622;2023-04-15T00:18:06;99193.63;;;7.29;69.51
68654;BME280;55636;51.108;13.622;2023-04-15T00:19:09;99192.81;;;7.28;69.54
68654;BME280;55636;51.108;13.622;2023-04-15T00:20:11;99193.63;;;7.29;69.37
68654;BME280;55636;51.108;13.622;2023-04-15T00:21:15;99198.28;;;7.28;69.36
68654;BME280;55636;51.108;13.622;2023-04-15T00:22:17;99190.88;;;7.29;69.38
68654;BME280;55636;51.108;13.622;2023-04-15T00:23:19;99184.56;;;7.28;69.30
68654;BME280;55636;51.108;13.622;2023-04-15T00:24:22;99184.56;;;7.28;69.44
68654;BME280;55636;51.108;13.622;2023-04-15T00:25:25;99193.63;;;7.29;69.41
68654;BME280;55636;51.108;13.622;2023-04-15T00:26:27;99181.81;;;7.28;69.37
68654;BME280;55636;51.108;13.622;2023-04-15T00:27:30;99182.63;;;7.29;69.41
68654;BME280;55636;51.108;13.622;2023-04-15T00:28:32;99185.38;;;7.29;69.45
68654;BME280;55636;51.108;13.622;2023-04-15T00:29:35;99180.97;;;7.28;69.61
68654;BME280;55636;51.108;13.622;2023-04-15T00:30:37;99193.63;;;7.29;69.63
68654;BME280;55636;51.108;13.622;2023-04-15T00:31:40;99186.47;;;7.28;69.46
68654;BME280;55636;51.108;13.622;2023-04-15T00:32:43;99186.47;;;7.28;69.52
68654;BME280;55636;51.108;13.622;2023-04-15T00:33:46;99189.22;;;7.28;69.51
68654;BME280;55636;51.108;13.622;2023-04-15T00:34:48;99190.06;;;7.28;69.61
68654;BME280;55636;51.108;13.622;2023-04-15T00:35:51;99190.06;;;7.28;69.58
68654;BME280;55636;51.108;13.622;2023-04-15T00:36:53;99185.38;;;7.29;69.51
68654;BME280;55636;51.108;13.622;2023-04-15T00:37:55;99181.81;;;7.28;69.57
68654;BME280;55636;51.108;13.622;2023-04-15T00:38:58;99180.97;;;7.28;69.60
68654;BME280;55636;51.108;13.622;2023-04-15T00:40:00;99171.91;;;7.27;69.58
68654;BME280;55636;51.108;13.622;2023-04-15T00:41:04;99172.72;;;7.28;69.40
68654;BME280;55636;51.108;13.622;2023-04-15T00:42:06;99177.13;;;7.29;69.64
68654;BME280;55636;51.108;13.622;2023-04-15T00:43:08;99180.97;;;7.28;69.66
68654;BME280;55636;51.108;13.622;2023-04-15T00:44:11;99174.38;;;7.29;69.62
68654;BME280;55636;51.108;13.622;2023-04-15T00:45:13;99176.31;;;7.28;69.58
68654;BME280;55636;51.108;13.622;2023-04-15T00:46:17;99178.22;;;7.28;69.54
68654;BME280;55636;51.108;13.622;2023-04-15T00:47:22;99169.69;;;7.29;69.50
68654;BME280;55636;51.108;13.622;2023-04-15T00:48:25;99175.19;;;7.29;69.54
68654;BME280;55636;51.108;13.622;2023-04-15T00:49:28;99179.06;;;7.28;69.49
68654;BME280;55636;51.108;13.622;2023-04-15T00:50:31;99175.47;;;7.28;69.55
68654;BME280;55636;51.108;13.622;2023-04-15T00:51:34;99175.19;;;7.29;69.55
68654;BME280;55636;51.108;13.622;2023-04-15T00:52:38;99184.00;;;7.31;69.58
68654;BME280;55636;51.108;13.622;2023-04-15T00:53:42;99177.94;;;7.29;69.51
68654;BME280;55636;51.108;13.622;2023-04-15T00:54:44;99173.56;;;7.28;69.54
68654;BME280;55636;51.108;13.622;2023-04-15T00:55:47;99179.88;;;7.29;69.44
68654;BME280;55636;51.108;13.622;2023-04-15T00:56:50;99179.06;;;7.28;69.32
68654;BME280;55636;51.108;13.622;2023-04-15T00:57:53;99177.13;;;7.29;69.44
68654;BME280;55636;51.108;13.622;2023-04-15T00:58:57;99168.88;;;7.29;69.56
68654;BME280;55636;51.108;13.622;2023-04-15T01:00:00;99171.63;;;7.29;69.49
68654;BME280;55636;51.108;13.622;2023-04-15T01:01:03;99168.88;;;7.29;69.36
68654;BME280;55636;51.108;13.622;2023-04-15T01:02:06;99169.16;;;7.27;69.48
68654;BME280;55636;51.108;13.622;2023-04-15T01:03:09;99169.16;;;7.27;69.52
68654;BME280;55636;51.108;13.622;2023-04-15T01:04:12;99167.22;;;7.28;69.55
68654;BME280;55636;51.108;13.622;2023-04-15T01:05:16;99175.47;;;7.28;69.47
68654;BME280;55636;51.108;13.622;2023-04-15T01:06:19;99172.72;;;7.28;69.62
68654;BME280;55636;51.108;13.622;2023-04-15T01:07:23;99174.66;;;7.27;69.53
68654;BME280;55636;51.108;13.622;2023-04-15T01:08:29;99173.00;;;7.26;69.52
68654;BME280;55636;51.108;13.622;2023-04-15T01:09:32;99167.50;;;7.26;69.45
68654;BME280;55636;51.108;13.622;2023-04-15T01:10:35;99164.47;;;7.28;69.47
68654;BME280;55636;51.108;13.622;2023-04-15T01:11:37;99168.31;;;7.27;69.56
68654;BME280;55636;51.108;13.622;2023-04-15T01:12:42;99168.31;;;7.27;69.58
68654;BME280;55636;51.108;13.622;2023-04-15T01:13:46;99168.31;;;7.27;69.52
68654;BME280;55636;51.108;13.622;2023-04-15T01:14:49;99168.31;;;7.27;69.56
68654;BME280;55636;51.108;13.622;2023-04-15T01:15:52;99163.94;;;7.26;69.54
68654;BME280;55636;51.108;13.622;2023-04-15T01:16:55;99164.75;;;7.26;69.52
68654;BME280;55636;51.108;13.622;2023-04-15T01:17:58;99165.56;;;7.27;69.66
68654;BME280;55636;51.108;13.622;2023-04-15T01:19:00;99159.25;;;7.26;69.63
68654;BME280;55636;51.108;13.622;2023-04-15T01:20:04;99159.25;;;7.26;69.55
68654;BME280;55636;51.108;13.622;2023-04-15T01:21:06;99156.53;;;7.26;69.58
68654;BME280;55636;51.108;13.622;2023-04-15T01:22:09;99153.50;;;7.28;69.53
68654;BME280;55636;51.108;13.622;2023-04-15T01:23:12;99148.84;;;7.28;69.56
68654;BME280;55636;51.108;13.622;2023-04-15T01:24:17;99146.34;;;7.27;69.54
68654;BME280;55636;51.108;13.622;2023-04-15T01:25:30;99145.25;;;7.28;69.55
68654;BME280;55636;51.108;13.622;2023-04-15T01:26:36;99151.03;;;7.26;69.56
68654;BME280;55636;51.108;13.622;2023-04-15T01:27:41;99146.34;;;7.27;69.54
68654;BME280;55636;51.108;13.622;2023-04-15T01:28:44;99143.59;;;7.27;69.47
68654;BME280;55636;51.108;13.622;2023-04-15T01:29:46;99141.13;;;7.25;69.41
68654;BME280;55636;51.108;13.622;2023-04-15T01:30:49;99146.09;;;7.28;69.38
68654;BME280;55636;51.108;13.622;2023-04-15T01:31:52;99150.75;;;7.28;69.53
68654;BME280;55636;51.108;13.622;2023-04-15T01:32:56;99151.59;;;7.28;69.54
68654;BME280;55636;51.108;13.622;2023-04-15T01:33:58;99148.00;;;7.28;69.59
68654;BME280;55636;51.108;13.622;2023-04-15T01:35:01;99147.19;;;7.27;69.45
68654;BME280;55636;51.108;13.622;2023-04-15T01:36:04;99153.50;;;7.28;69.52
68654;BME280;55636;51.108;13.622;2023-04-15T01:37:08;99148.00;;;7.28;69.64
68654;BME280;55636;51.108;13.622;2023-04-15T01:38:10;99141.69;;;7.27;69.50
68654;BME280;55636;51.108;13.622;2023-04-15T01:39:14;99148.28;;;7.26;69.51
68654;BME280;55636;51.108;13.622;2023-04-15T01:40:16;99150.75;;;7.28;69.53
68654;BME280;55636;51.108;13.622;2023-04-15T01:41:27;99145.25;;;7.28;69.70
68654;BME280;55636;51.108;13.622;2023-04-15T01:42:30;99151.84;;;7.27;69.56
68654;BME280;55636;51.108;13.622;2023-04-15T01:43:34;99148.28;;;7.26;69.64
68654;BME280;55636;51.108;13.622;2023-04-15T01:44:40;99149.09;;;7.27;69.60
68654;BME280;55636;51.108;13.622;2023-04-15T01:45:45;99146.34;;;7.27;69.69
68654;BME280;55636;51.108;13.622;2023-04-15T01:46:48;99145.53;;;7.26;69.64
68654;BME280;55636;51.108;13.622;2023-04-15T01:47:50;99141.97;;;7.26;69.77
68654;BME280;55636;51.108;13.622;2023-04-15T01:48:53;99143.88;;;7.25;69.77
68654;BME280;55636;51.108;13.622;2023-04-15T01:49:55;99147.69;;;7.24;69.70
68654;BME280;55636;51.108;13.622;2023-04-15T01:50:58;99141.13;;;7.25;69.77
68654;BME280;55636;51.108;13.622;2023-04-15T01:52:01;99151.03;;;7.26;69.57
68654;BME280;55636;51.108;13.622;2023-04-15T01:53:04;99147.47;;;7.26;69.68
68654;BME280;55636;51.108;13.622;2023-04-15T01:54:07;99144.72;;;7.26;69.79
68654;BME280;55636;51.108;13.622;2023-04-15T01:55:10;99141.13;;;7.25;69.85
68654;BME280;55636;51.108;13.622;2023-04-15T01:56:12;99139.22;;;7.26;69.73
68654;BME280;55636;51.108;13.622;2023-04-15T01:57:17;99138.94;;;7.27;69.74
68654;BME280;55636;51.108;13.622;2023-04-15T01:58:20;99141.69;;;7.27;69.75
68654;BME280;55636;51.108;13.622;2023-04-15T01:59:24;99146.34;;;7.27;69.71
68654;BME280;55636;51.108;13.622;2023-04-15T02:00:30;99140.84;;;7.27;69.71
68654;BME280;55636;51.108;13.622;2023-04-15T02:01:33;99133.44;;;7.27;69.89
68654;BME280;55636;51.108;13.622;2023-04-15T02:02:38;99143.59;;;7.27;69.92
68654;BME280;55636;51.108;13.622;2023-04-15T02:03:41;99136.47;;;7.26;69.87
68654;BME280;55636;51.108;13.622;2023-04-15T02:04:44;99139.22;;;7.26;69.88
68654;BME280;55636;51.108;13.622;2023-04-15T02:05:46;99131.78;;;7.26;69.85
68654;BME280;55636;51.108;13.622;2023-04-15T02:06:49;99129.06;;;7.26;69.85
68654;BME280;55636;51.108;13.622;2023-04-15T02:07:51;99130.97;;;7.26;69.92
68654;BME280;55636;51.108;13.622;2023-04-15T02:08:54;99130.97;;;7.26;69.83
68654;BME280;55636;51.108;13.622;2023-04-15T02:09:57;99124.66;;;7.25;69.86
68654;BME280;55636;51.108;13.622;2023-04-15T02:10:59;99129.06;;;7.26;69.78
68654;BME280;55636;51.108;13.622;2023-04-15T02:12:02;99121.63;;;7.27;69.78
68654;BME280;55636;51.108;13.622;2023-04-15T02:13:05;99129.31;;;7.25;69.74
68654;BME280;55636;51.108;13.622;2023-04-15T02:14:07;99118.06;;;7.26;69.78
68654;BME280;55636;51.108;13.622;2023-04-15T02:15:10;99121.63;;;7.27;69.80
68654;BME280;55636;51.108;13.622;2023-04-15T02:16:19;99124.38;;;7.27;69.81
68654;BME280;55636;51.108;13.622;2023-04-15T02:17:22;99124.66;;;7.25;69.96
68654;BME280;55636;51.108;13.622;2023-04-15T02:18:24;99121.91;;;7.25;69.98
68654;BME280;55636;51.108;13.622;2023-04-15T02:19:27;99113.66;;;7.25;69.95
68654;BME280;55636;51.108;13.622;2023-04-15T02:20:31;99119.16;;;7.25;69.94
68654;BME280;55636;51.108;13.622;2023-04-15T02:21:33;99120.00;;;7.26;70.02
68654;BME280;55636;51.108;13.622;2023-04-15T02:22:36;99121.09;;;7.25;69.95
68654;BME280;55636;51.108;13.622;2023-04-15T02:23:39;99115.59;;;7.25;69.90
68654;BME280;55636;51.108;13.622;2023-04-15T02:24:41;99120.00;;;7.26;70.06
68654;BME280;55636;51.108;13.622;2023-04-15T02:25:44;99124.66;;;7.25;70.09
68654;BME280;55636;51.108;13.622;2023-04-15T02:26:55;99117.25;;;7.26;70.03
68654;BME280;55636;51.108;13.622;2023-04-15T02:27:57;99116.41;;;7.25;70.03
68654;BME280;55636;51.108;13.622;2023-04-15T02:29:00;99117.25;;;7.26;69.98
68654;BME280;55636;51.108;13.622;2023-04-15T02:30:04;99119.16;;;7.25;70.00
68654;BME280;55636;51.108;13.622;2023-04-15T02:31:08;99121.09;;;7.25;70.00
68654;BME280;55636;51.108;13.622;2023-04-15T02:32:12;99116.13;;;7.27;69.98
68654;BME280;55636;51.108;13.622;2023-04-15T02:33:14;99114.50;;;7.26;70.02
68654;BME280;55636;51.108;13.622;2023-04-15T02:34:17;99120.25;;;7.24;70.06
68654;BME280;55636;51.108;13.622;2023-04-15T02:35:19;99118.34;;;7.25;70.10
68654;BME280;55636;51.108;13.622;2023-04-15T02:36:22;99112.84;;;7.25;70.07
68654;BME280;55636;51.108;13.622;2023-04-15T02:37:25;99115.59;;;7.25;70.05
68654;BME280;55636;51.108;13.622;2023-04-15T02:38:29;99113.13;;;7.23;70.04
68654;BME280;55636;51.108;13.622;2023-04-15T02:39:33;99108.44;;;7.23;70.04
68654;BME280;55636;51.108;13.622;2023-04-15T02:40:35;99118.34;;;7.25;70.12
68654;BME280;55636;51.108;13.622;2023-04-15T02:41:38;99115.59;;;7.25;70.05
68654;BME280;55636;51.108;13.622;2023-04-15T02:42:41;99121.09;;;7.25;70.09
68654;BME280;55636;51.108;13.622;2023-04-15T02:43:47;99109.25;;;7.24;70.16
68654;BME280;55636;51.108;13.622;2023-04-15T02:44:50;99120.25;;;7.24;70.20
68654;BME280;55636;51.108;13.622;2023-04-15T02:45:53;99110.91;;;7.25;70.20
68654;BME280;55636;51.108;13.622;2023-04-15T02:46:57;99116.41;;;7.25;70.18
68654;BME280;55636;51.108;13.622;2023-04-15T02:48:00;99115.59;;;7.25;70.15
68654;BME280;55636;51.108;13.622;2023-04-15T02:49:07;99111.75;;;7.26;70.17
68654;BME280;55636;51.108;13.622;2023-04-15T02:50:11;99117.25;;;7.26;70.16
68654;BME280;55636;51.108;13.622;2023-04-15T02:51:17;99115.31;;;7.26;70.25
68654;BME280;55636;51.108;13.622;2023-04-15T02:52:21;99110.91;;;7.25;70.20
68654;BME280;55636;51.108;13.622;2023-04-15T02:53:23;99113.66;;;7.25;70.24
68654;BME280;55636;51.108;13.622;2023-04-15T02:54:27;99103.50;;;7.26;70.22
68654;BME280;55636;51.108;13.622;2023-04-15T02:55:30;99110.91;;;7.25;70.32
68654;BME280;55636;51.108;13.622;2023-04-15T02:56:33;99113.66;;;7.25;70.36
68654;BME280;55636;51.108;13.622;2023-04-15T02:57:35;99122.75;;;7.26;70.38
68654;BME280;55636;51.108;13.622;2023-04-15T02:58:41;99117.25;;;7.26;70.38
68654;BME280;55636;51.108;13.622;2023-04-15T02:59:44;99113.66;;;7.25;70.33
68654;BME280;55636;51.108;13.622;2023-04-15T03:00:46;99114.50;;;7.26;70.37
68654;BME280;55636;51.108;13.622;2023-04-15T03:01:48;99120.81;;;7.26;70.43
68654;BME280;55636;51.108;13.622;2023-04-15T03:02:51;99122.75;;;7.26;70.32
68654;BME280;55636;51.108;13.622;2023-04-15T03:03:58;99122.75;;;7.26;70.21
68654;BME280;55636;51.108;13.622;2023-04-15T03:05:01;99112.56;;;7.26;70.27
68654;BME280;55636;51.108;13.622;2023-04-15T03:06:03;99113.38;;;7.27;70.25
68654;BME280;55636;51.108;13.622;2023-04-15T03:07:06;99110.63;;;7.27;70.21
68654;BME280;55636;51.108;13.622;2023-04-15T03:08:09;99109.81;;;7.26;70.24
68654;BME280;55636;51.108;13.622;2023-04-15T03:09:11;99113.38;;;7.27;70.27
68654;BME280;55636;51.108;13.622;2023-04-15T03:10:14;99105.41;;;7.25;70.33
68654;BME280;55636;51.108;13.622;2023-04-15T03:11:16;99112.56;;;7.26;70.25
68654;BME280;55636;51.108;13.622;2023-04-15T03:12:19;99109.00;;;7.26;70.33
68654;BME280;55636;51.108;13.622;2023-04-15T03:13:22;99106.25;;;7.26;70.14
68654;BME280;55636;51.108;13.622;2023-04-15T03:14:25;99107.06;;;7.26;70.12
68654;BME280;55636;51.108;13.622;2023-04-15T03:15:28;99108.16;;;7.25;70.20
68654;BME280;55636;51.108;13.622;2023-04-15T03:16:31;99106.25;;;7.26;70.09
68654;BME280;55636;51.108;13.622;2023-04-15T03:17:33;99109.00;;;7.26;70.11
68654;BME280;55636;51.108;13.622;2023-04-15T03:18:36;99105.41;;;7.25;70.12
68654;BME280;55636;51.108;13.622;2023-04-15T03:19:39;99099.94;;;7.25;70.14
68654;BME280;55636;51.108;13.622;2023-04-15T03:20:41;99103.50;;;7.26;70.27
68654;BME280;55636;51.108;13.622;2023-04-15T03:21:44;99107.34;;;7.25;70.24
68654;BME280;55636;51.108;13.622;2023-04-15T03:22:47;99104.59;;;7.25;70.38
68654;BME280;55636;51.108;13.622;2023-04-15T03:23:50;99100.78;;;7.26;70.28
68654;BME280;55636;51.108;13.622;2023-04-15T03:24:52;99099.09;;;7.25;70.30
68654;BME280;55636;51.108;13.622;2023-04-15T03:25:55;99097.44;;;7.23;70.29
68654;BME280;55636;51.108;13.622;2023-04-15T03:27:00;99099.09;;;7.25;70.38
68654;BME280;55636;51.108;13.622;2023-04-15T03:28:03;99102.66;;;7.25;70.28
68654;BME280;55636;51.108;13.622;2023-04-15T03:29:07;99095.50;;;7.24;70.32
68654;BME280;55636;51.108;13.622;2023-04-15T03:30:09;99104.34;;;7.26;70.36
68654;BME280;55636;51.108;13.622;2023-04-15T03:31:13;99101.84;;;7.25;70.28
68654;BME280;55636;51.108;13.622;2023-04-15T03:32:15;99095.28;;;7.26;70.28
68654;BME280;55636;51.108;13.622;2023-04-15T03:33:17;99103.50;;;7.26;70.34
68654;BME280;55636;51.108;13.622;2023-04-15T03:34:20;99102.66;;;7.25;70.26
68654;BME280;55636;51.108;13.622;2023-04-15T03:35:22;99110.09;;;7.25;70.41
68654;BME280;55636;51.108;13.622;2023-04-15T03:36:25;99110.91;;;7.25;70.36
68654;BME280;55636;51.108;13.622;2023-04-15T03:37:28;99108.16;;;7.25;70.46
68654;BME280;55636;51.108;13.622;2023-04-15T03:38:30;99099.09;;;7.25;70.32
68654;BME280;55636;51.108;13.622;2023-04-15T03:39:33;99099.94;;;7.25;70.20
68654;BME280;55636;51.108;13.622;2023-04-15T03:40:35;99101.84;;;7.25;70.43
68654;BME280;55636;51.108;13.622;2023-04-15T03:41:38;99095.50;;;7.24;70.31
68654;BME280;55636;51.108;13.622;2023-04-15T03:42:41;99101.00;;;7.24;70.22
68654;BME280;55636;51.108;13.622;2023-04-15T03:43:43;99094.72;;;7.23;70.21
68654;BME280;55636;51.108;13.622;2023-04-15T03:44:46;99102.94;;;7.23;70.31
68654;BME280;55636;51.108;13.622;2023-04-15T03:45:48;99090.03;;;7.24;70.26
68654;BME280;55636;51.108;13.622;2023-04-15T03:46:50;99098.25;;;7.24;70.46
68654;BME280;55636;51.108;13.622;2023-04-15T03:47:53;99100.19;;;7.23;70.43
68654;BME280;55636;51.108;13.622;2023-04-15T03:48:56;99099.38;;;7.23;70.39
68654;BME280;55636;51.108;13.622;2023-04-15T03:49:58;99104.88;;;7.23;70.42
68654;BME280;55636;51.108;13.622;2023-04-15T03:51:01;99098.53;;;7.22;70.43
68654;BME280;55636;51.108;13.622;2023-04-15T03:52:03;99096.38;;;7.25;70.48
68654;BME280;55636;51.108;13.622;2023-04-15T03:53:06;99094.72;;;7.23;70.44
68654;BME280;55636;51.108;13.622;2023-04-15T03:54:08;99097.19;;;7.25;70.47
68654;BME280;55636;51.108;13.622;2023-04-15T03:55:11;99087.28;;;7.24;70.43
68654;BME280;55636;51.108;13.622;2023-04-15T03:56:13;99099.09;;;7.25;70.42
68654;BME280;55636;51.108;13.622;2023-04-15T03:57:15;99099.09;;;7.25;70.44
68654;BME280;55636;51.108;13.622;2023-04-15T03:58:18;99091.97;;;7.23;70.44
68654;BME280;55636;51.108;13.622;2023-04-15T03:59:20;99091.69;;;7.25;70.44
68654;BME280;55636;51.108;13.622;2023-04-15T04:00:22;99090.88;;;7.25;70.49
68654;BME280;55636;51.108;13.622;2023-04-15T04:01:24;99082.63;;;7.25;70.52
68654;BME280;55636;51.108;13.622;2023-04-15T04:02:27;99077.94;;;7.25;70.40
68654;BME280;55636;51.108;13.622;2023-04-15T04:03:29;99081.78;;;7.24;70.51
68654;BME280;55636;51.108;13.622;2023-04-15T04:04:32;99078.78;;;7.26;70.39
68654;BME280;55636;51.108;13.622;2023-04-15T04:05:35;99077.94;;;7.25;70.54
68654;BME280;55636;51.108;13.622;2023-04-15T04:06:40;99079.88;;;7.25;70.55
68654;BME280;55636;51.108;13.622;2023-04-15T04:07:42;99082.63;;;7.25;70.46
68654;BME280;55636;51.108;13.622;2023-04-15T04:08:44;99083.44;;;7.25;70.45
68654;BME280;55636;51.108;13.622;2023-04-15T04:09:49;99081.53;;;7.26;70.56
68654;BME280;55636;51.108;13.622;2023-04-15T04:10:51;99074.13;;;7.26;70.49
68654;BME280;55636;51.108;13.622;2023-04-15T04:11:53;99076.06;;;7.26;70.53
68654;BME280;55636;51.108;13.622;2023-04-15T04:12:57;99075.19;;;7.25;70.63
68654;BME280;55636;51.108;13.622;2023-04-15T04:13:59;99072.47;;;7.25;70.45
68654;BME280;55636;51.108;13.622;2023-04-15T04:15:02;99075.19;;;7.25;70.60
68654;BME280;55636;51.108;13.622;2023-04-15T04:16:05;99078.78;;;7.26;70.56
68654;BME280;55636;51.108;13.622;2023-04-15T04:17:08;99077.69;;;7.27;70.53
68654;BME280;55636;51.108;13.622;2023-04-15T04:18:10;99077.69;;;7.27;70.66
68654;BME280;55636;51.108;13.622;2023-04-15T04:19:13;99078.78;;;7.26;70.65
68654;BME280;55636;51.108;13.622;2023-04-15T04:20:16;99082.34;;;7.26;70.66
68654;BME280;55636;51.108;13.622;2023-04-15T04:21:18;99082.91;;;7.28;70.57
68654;BME280;55636;51.108;13.622;2023-04-15T04:22:22;99089.50;;;7.27;70.65
68654;BME280;55636;51.108;13.622;2023-04-15T04:23:25;99082.09;;;7.28;70.78
68654;BME280;55636;51.108;13.622;2023-04-15T04:24:28;99093.06;;;7.28;70.69
68654;BME280;55636;51.108;13.622;2023-04-15T04:25:30;99087.56;;;7.28;70.82
68654;BME280;55636;51.108;13.622;2023-04-15T04:26:33;99099.41;;;7.28;70.78
68654;BME280;55636;51.108;13.622;2023-04-15T04:27:35;99095.53;;;7.29;70.76
68654;BME280;55636;51.108;13.622;2023-04-15T04:28:37;99101.03;;;7.29;70.83
68654;BME280;55636;51.108;13.622;2023-04-15T04:29:41;99096.38;;;7.30;70.73
68654;BME280;55636;51.108;13.622;2023-04-15T04:30:44;99095.81;;;7.28;70.77
68654;BME280;55636;51.108;13.622;2023-04-15T04:31:46;99098.56;;;7.28;70.81
68654;BME280;55636;51.108;13.622;2023-04-15T04:32:49;99094.72;;;7.29;70.71
68654;BME280;55636;51.108;13.622;2023-04-15T04:33:52;99100.22;;;7.29;70.64
68654;BME280;55636;51.108;13.622;2023-04-15T04:34:55;99095.81;;;7.28;70.78
68654;BME280;55636;51.108;13.622;2023-04-15T04:35:57;99093.63;;;7.30;70.73
68654;BME280;55636;51.108;13.622;2023-04-15T04:36:59;99090.03;;;7.29;70.74
68654;BME280;55636;51.108;13.622;2023-04-15T04:38:02;99079.34;;;7.28;70.73
68654;BME280;55636;51.108;13.622;2023-04-15T04:39:05;99077.16;;;7.30;70.68
68654;BME280;55636;51.108;13.622;2023-04-15T04:40:08;99085.13;;;7.31;70.82
68654;BME280;55636;51.108;13.622;2023-04-15T04:41:10;99077.16;;;7.30;70.82
68654;BME280;55636;51.108;13.622;2023-04-15T04:42:13;99079.06;;;7.29;70.97
68654;BME280;55636;51.108;13.622;2023-04-15T04:43:15;99079.91;;;7.30;70.83
68654;BME280;55636;51.108;13.622;2023-04-15T04:44:17;99088.94;;;7.30;70.82
68654;BME280;55636;51.108;13.622;2023-04-15T04:45:20;99087.88;;;7.31;70.83
68654;BME280;55636;51.108;13.622;2023-04-15T04:46:22;99081.56;;;7.31;70.79
68654;BME280;55636;51.108;13.622;2023-04-15T04:47:25;99095.84;;;7.33;70.79
68654;BME280;55636;51.108;13.622;2023-04-15T04:48:27;99091.19;;;7.33;70.96
68654;BME280;55636;51.108;13.622;2023-04-15T04:49:32;99088.44;;;7.33;71.00
68654;BME280;55636;51.108;13.622;2023-04-15T04:50:35;99085.69;;;7.33;71.02
68654;BME280;55636;51.108;13.622;2023-04-15T04:51:38;99092.00;;;7.34;71.09
68654;BME280;55636;51.108;13.622;2023-04-15T04:52:41;99089.53;;;7.32;71.06
68654;BME280;55636;51.108;13.622;2023-04-15T04:53:43;99083.75;;;7.34;71.02
68654;BME280;55636;51.108;13.622;2023-04-15T04:54:45;99093.94;;;7.33;70.95
68654;BME280;55636;51.108;13.622;2023-04-15T04:55:48;99086.50;;;7.34;71.03
68654;BME280;55636;51.108;13.622;2023-04-15T04:56:51;99091.19;;;7.33;71.08
68654;BME280;55636;51.108;13.622;2023-04-15T04:57:53;99088.16;;;7.35;71.07
68654;BME280;55636;51.108;13.622;2023-04-15T04:58:55;99093.66;;;7.35;70.97
68654;BME280;55636;51.108;13.622;2023-04-15T04:59:57;99088.16;;;7.35;70.87
68654;BME280;55636;51.108;13.622;2023-04-15T05:01:00;99090.91;;;7.35;70.95
68654;BME280;55636;51.108;13.622;2023-04-15T05:02:02;99088.97;;;7.35;70.94
68654;BME280;55636;51.108;13.622;2023-04-15T05:03:05;99088.97;;;7.35;70.84
68654;BME280;55636;51.108;13.622;2023-04-15T05:04:08;99092.81;;;7.34;71.10
68654;BME280;55636;51.108;13.622;2023-04-15T05:05:10;99094.47;;;7.35;71.02
68654;BME280;55636;51.108;13.622;2023-04-15T05:06:14;99089.81;;;7.36;71.04
68654;BME280;55636;51.108;13.622;2023-04-15T05:07:16;99095.31;;;7.36;71.07
68654;BME280;55636;51.108;13.622;2023-04-15T05:08:19;99093.38;;;7.36;70.99
68654;BME280;55636;51.108;13.622;2023-04-15T05:09:21;99098.06;;;7.36;71.02
68654;BME280;55636;51.108;13.622;2023-04-15T05:10:24;99093.66;;;7.35;70.97
68654;BME280;55636;51.108;13.622;2023-04-15T05:11:26;99088.97;;;7.35;71.08
68654;BME280;55636;51.108;13.622;2023-04-15T05:12:29;99097.22;;;7.35;71.16
68654;BME280;55636;51.108;13.622;2023-04-15T05:13:31;99090.91;;;7.35;71.13
68654;BME280;55636;51.108;13.622;2023-04-15T05:14:34;99099.16;;;7.35;70.99
68654;BME280;55636;51.108;13.622;2023-04-15T05:15:36;99100.81;;;7.36;71.01
68654;BME280;55636;51.108;13.622;2023-04-15T05:16:40;99099.16;;;7.35;71.11
68654;BME280;55636;51.108;13.622;2023-04-15T05:17:43;99096.41;;;7.35;71.06
68654;BME280;55636;51.108;13.622;2023-04-15T05:18:46;99093.66;;;7.35;71.13
68654;BME280;55636;51.108;13.622;2023-04-15T05:19:48;99097.22;;;7.35;71.21
68654;BME280;55636;51.108;13.622;2023-04-15T05:20:50;99098.88;;;7.36;71.17
68654;BME280;55636;51.108;13.622;2023-04-15T05:21:52;99100.81;;;7.36;71.10
68654;BME280;55636;51.108;13.622;2023-04-15T05:22:55;99096.41;;;7.35;71.13
68654;BME280;55636;51.108;13.622;2023-04-15T05:23:57;99103.56;;;7.36;71.34
68654;BME280;55636;51.108;13.622;2023-04-15T05:24:59;99094.47;;;7.35;71.26
68654;BME280;55636;51.108;13.622;2023-04-15T05:26:02;99098.06;;;7.36;71.22
68654;BME280;55636;51.108;13.622;2023-04-15T05:27:04;99096.94;;;7.37;71.14
68654;BME280;55636;51.108;13.622;2023-04-15T05:28:07;99096.94;;;7.37;71.14
68654;BME280;55636;51.108;13.622;2023-04-15T05:29:09;99100.53;;;7.37;71.17
68654;BME280;55636;51.108;13.622;2023-04-15T05:30:12;99096.13;;;7.36;71.18
68654;BME280;55636;51.108;13.622;2023-04-15T05:31:15;99097.78;;;7.37;71.31
68654;BME280;55636;51.108;13.622;2023-04-15T05:32:17;99103.28;;;7.37;71.24
68654;BME280;55636;51.108;13.622;2023-04-15T05:33:20;99103.28;;;7.37;71.39